Index of /pub/macports/trunk/dports/kde

[ICO]NameLast modifiedSizeDescription

[PARENTDIR]Parent Directory  -  
[DIR]OSXdg-icons/2022-12-02 19:33 -  
[DIR]amarok/2020-11-16 18:39 -  
[DIR]analitza/2022-12-29 11:57 -  
[DIR]ark/2022-12-29 11:57 -  
[DIR]attica/2022-12-29 11:57 -  
[DIR]baloo-widgets/2022-12-29 11:57 -  
[DIR]baloo/2024-05-23 18:08 -  
[DIR]blinken/2022-12-29 11:57 -  
[DIR]bomber/2022-12-29 11:57 -  
[DIR]bovo/2022-12-29 11:57 -  
[DIR]cantor/2022-12-29 11:57 -  
[DIR]cervisia/2022-12-29 11:57 -  
[DIR]choqok/2020-11-16 18:39 -  
[DIR]ciment-icons/2022-12-02 19:33 -  
[DIR]dictconv/2020-11-16 18:39 -  
[DIR]digikam/2023-06-21 11:45 -  
[DIR]dolphin-plugins/2022-12-29 11:57 -  
[DIR]dragon/2022-12-29 11:57 -  
[DIR]ffmpegthumbs/2022-12-29 11:57 -  
[DIR]granatier/2022-12-29 11:57 -  
[DIR]gwenview/2022-12-29 11:57 -  
[DIR]juk/2022-12-29 11:57 -  
[DIR]kactivities/2022-12-29 11:57 -  
[DIR]kalgebra/2022-12-29 11:57 -  
[DIR]kalzium/2022-12-29 11:57 -  
[DIR]kamera/2022-12-29 11:57 -  
[DIR]kanagram/2022-12-29 11:57 -  
[DIR]kapman/2022-12-29 11:57 -  
[DIR]kapptemplate/2022-12-29 11:57 -  
[DIR]kate/2024-06-02 15:56 -  
[DIR]katomic/2022-12-29 11:57 -  
[DIR]kblackbox/2022-12-29 11:57 -  
[DIR]kblocks/2022-12-29 11:57 -  
[DIR]kbounce/2022-12-29 11:57 -  
[DIR]kbreakout/2022-12-29 11:57 -  
[DIR]kbruch/2022-12-29 11:57 -  
[DIR]kcachegrind4/2022-12-29 11:57 -  
[DIR]kcalc/2022-12-29 11:57 -  
[DIR]kcharselect/2022-12-29 11:57 -  
[DIR]kcm-baloo-advanced/2022-12-29 11:57 -  
[DIR]kcolorchooser/2022-12-29 11:57 -  
[DIR]kcron/2022-12-29 11:57 -  
[DIR]kde-dev-scripts/2023-12-13 10:14 -  
[DIR]kde-dev-utils/2022-12-29 11:57 -  
[DIR]kde-extra-cmake-modules/2024-05-12 16:03 -  
[DIR]kde-l10n-ar/2023-12-07 10:20 -  
[DIR]kde-l10n-bg/2023-12-07 10:20 -  
[DIR]kde-l10n-bs/2023-12-07 10:20 -  
[DIR]kde-l10n-ca-valencia/2023-12-07 10:20 -  
[DIR]kde-l10n-ca/2023-12-07 10:20 -  
[DIR]kde-l10n-cs/2023-12-07 10:20 -  
[DIR]kde-l10n-da/2023-12-07 10:20 -  
[DIR]kde-l10n-de/2023-12-07 10:20 -  
[DIR]kde-l10n-el/2023-12-07 10:20 -  
[DIR]kde-l10n-en_GB/2023-12-07 10:20 -  
[DIR]kde-l10n-es/2023-12-07 10:20 -  
[DIR]kde-l10n-et/2023-12-07 10:20 -  
[DIR]kde-l10n-eu/2023-12-07 10:20 -  
[DIR]kde-l10n-fa/2023-12-07 10:20 -  
[DIR]kde-l10n-fi/2023-12-07 10:20 -  
[DIR]kde-l10n-fr/2023-12-07 10:20 -  
[DIR]kde-l10n-ga/2023-12-07 10:20 -  
[DIR]kde-l10n-gl/2023-12-07 10:20 -  
[DIR]kde-l10n-he/2023-12-07 10:20 -  
[DIR]kde-l10n-hi/2023-12-07 10:20 -  
[DIR]kde-l10n-hr/2023-12-07 10:20 -  
[DIR]kde-l10n-hu/2023-12-07 10:20 -  
[DIR]kde-l10n-ia/2023-12-07 10:20 -  
[DIR]kde-l10n-id/2023-12-07 10:20 -  
[DIR]kde-l10n-is/2023-12-07 10:20 -  
[DIR]kde-l10n-it/2023-12-07 10:20 -  
[DIR]kde-l10n-ja/2023-12-07 10:20 -  
[DIR]kde-l10n-kk/2023-12-07 10:20 -  
[DIR]kde-l10n-km/2023-12-07 10:20 -  
[DIR]kde-l10n-ko/2023-12-07 10:20 -  
[DIR]kde-l10n-lt/2023-12-07 10:20 -  
[DIR]kde-l10n-lv/2023-12-07 10:20 -  
[DIR]kde-l10n-mr/2023-12-07 10:20 -  
[DIR]kde-l10n-nb/2023-12-07 10:20 -  
[DIR]kde-l10n-nds/2023-12-07 10:20 -  
[DIR]kde-l10n-nl/2023-12-07 10:20 -  
[DIR]kde-l10n-nn/2023-12-07 10:20 -  
[DIR]kde-l10n-pa/2023-12-07 10:20 -  
[DIR]kde-l10n-pl/2023-12-07 10:20 -  
[DIR]kde-l10n-pt/2023-12-07 10:20 -  
[DIR]kde-l10n-pt_BR/2023-12-07 10:20 -  
[DIR]kde-l10n-ro/2023-12-07 10:20 -  
[DIR]kde-l10n-ru/2023-12-07 10:20 -  
[DIR]kde-l10n-si/2023-12-07 10:20 -  
[DIR]kde-l10n-sk/2023-12-07 10:20 -  
[DIR]kde-l10n-sl/2023-12-07 10:20 -  
[DIR]kde-l10n-sr/2023-12-07 10:20 -  
[DIR]kde-l10n-sv/2023-12-07 10:20 -  
[DIR]kde-l10n-tg/2023-12-07 10:20 -  
[DIR]kde-l10n-th/2023-12-07 10:20 -  
[DIR]kde-l10n-tr/2023-12-07 10:20 -  
[DIR]kde-l10n-ug/2023-12-07 10:20 -  
[DIR]kde-l10n-uk/2023-12-07 10:20 -  
[DIR]kde-l10n-vi/2023-12-07 10:20 -  
[DIR]kde-l10n-wa/2023-12-07 10:20 -  
[DIR]kde-l10n-zh_CN/2023-12-07 10:20 -  
[DIR]kde-l10n-zh_TW/2023-12-07 10:20 -  
[DIR]kde-wallpapers/2023-12-26 01:49 -  
[DIR]kde/2023-12-13 10:14 -  
[DIR]kde4-baseapps/2022-12-29 11:57 -  
[DIR]kde4-filelight/2022-12-29 11:57 -  
[DIR]kde4-runtime/2024-05-23 18:08 -  
[DIR]kde4-workspace/2021-10-27 11:56 -  
[DIR]kdeadmin/2024-01-12 04:48 -  
[DIR]kdeartwork/2023-06-21 11:45 -  
[DIR]kdebindings4/2024-01-13 01:24 -  
[DIR]kdeedu4/2022-12-29 11:57 -  
[DIR]kdegames4/2023-12-13 10:14 -  
[DIR]kdegraphics-strigi-analyzer/2022-12-29 11:57 -  
[DIR]kdegraphics-thumbnailers/2022-12-29 11:57 -  
[DIR]kdegraphics4/2024-01-13 01:24 -  
[DIR]kdelibs4/2024-05-12 16:03 -  
[DIR]kdemultimedia4/2024-01-13 01:24 -  
[DIR]kdenetwork-filesharing/2022-12-29 11:57 -  
[DIR]kdenetwork-strigi-analyzers/2022-12-29 11:57 -  
[DIR]kdenetwork4/2024-01-13 01:24 -  
[DIR]kdepim4-runtime/2024-06-04 21:42 -  
[DIR]kdepim4/2024-06-04 21:42 -  
[DIR]kdepimlibs4/2022-12-29 11:57 -  
[DIR]kdesdk-kioslaves/2022-12-29 11:57 -  
[DIR]kdesdk-strigi-analyzers/2022-12-29 11:57 -  
[DIR]kdesdk-thumbnailers/2022-12-29 11:57 -  
[DIR]kdesdk4/2024-01-07 15:24 -  
[DIR]kdesvn/2020-11-16 18:39 -  
[DIR]kdetoys4/2022-12-29 11:57 -  
[DIR]kdeutils4/2024-01-13 01:24 -  
[DIR]kdevelop/2022-12-29 11:57 -  
[DIR]kdevplatform/2022-12-29 11:57 -  
[DIR]kdewebdev/2022-12-29 11:57 -  
[DIR]kdiamond/2022-12-29 11:57 -  
[DIR]kdiskfree/2022-12-29 11:57 -  
[DIR]kdnssd/2022-12-29 11:57 -  
[DIR]kfilemetadata/2022-12-29 11:57 -  
[DIR]kfloppy/2022-12-29 11:57 -  
[DIR]kfourinline/2022-12-29 11:57 -  
[DIR]kgeography/2022-12-29 11:57 -  
[DIR]kget/2024-06-14 16:18 -  
[DIR]kgoldrunner/2022-12-29 11:57 -  
[DIR]kgpg/2022-12-29 11:57 -  
[DIR]kgraphviewer/2021-06-14 09:12 -  
[DIR]khangman/2022-12-29 11:57 -  
[DIR]kig/2022-12-29 11:57 -  
[DIR]kigo/2022-12-29 11:57 -  
[DIR]killbots/2022-12-29 11:57 -  
[DIR]kimono/2022-12-29 11:57 -  
[DIR]kiriki/2022-12-29 11:57 -  
[DIR]kiten/2022-12-29 11:57 -  
[DIR]kjumpingcube/2022-12-29 11:57 -  
[DIR]klettres/2022-12-29 11:57 -  
[DIR]klickety/2022-12-29 11:57 -  
[DIR]klines/2022-12-29 11:57 -  
[DIR]kmahjongg/2022-12-29 11:57 -  
[DIR]kmines/2022-12-29 11:57 -  
[DIR]kmix/2024-01-22 17:37 -  
[DIR]kmplot/2022-12-29 11:57 -  
[DIR]kmymoney4/2022-12-29 11:57 -  
[DIR]knavalbattle/2022-12-29 11:57 -  
[DIR]knetwalk/2022-12-29 11:57 -  
[DIR]koffice2-devel/2022-06-05 16:36 -  
[DIR]kolf/2022-12-29 11:57 -  
[DIR]kollision/2022-12-29 11:57 -  
[DIR]kolourpaint/2022-12-29 11:57 -  
[DIR]kompare/2022-12-29 11:57 -  
[DIR]konquest/2022-12-29 11:57 -  
[DIR]konsole/2022-12-29 11:57 -  
[DIR]konversation/2024-05-12 16:03 -  
[DIR]kopete/2022-12-29 11:57 -  
[DIR]korundum/2022-12-29 11:57 -  
[DIR]kpat/2022-12-29 11:57 -  
[DIR]kqtquickcharts/2022-12-29 11:57 -  
[DIR]krdc/2022-12-29 11:57 -  
[DIR]kreversi/2022-12-29 11:57 -  
[DIR]kross-interpreters/2022-12-29 11:57 -  
[DIR]kruler/2022-12-29 11:57 -  
[DIR]krusader/2022-07-05 19:45 -  
[DIR]ksaneplugin/2022-12-29 11:57 -  
[DIR]kscd/2022-12-29 11:57 -  
[DIR]kshisen/2022-12-29 11:57 -  
[DIR]ksirk/2022-12-29 11:57 -  
[DIR]ksnakeduel/2022-12-29 11:57 -  
[DIR]kspaceduel/2022-12-29 11:57 -  
[DIR]ksquares/2022-12-29 11:57 -  
[DIR]kstars/2023-06-21 11:45 -  
[DIR]ksudoku/2022-12-29 11:57 -  
[DIR]ksystemlog/2022-12-29 11:57 -  
[DIR]ktimer/2022-12-29 11:57 -  
[DIR]ktorrent4/2024-05-30 07:01 -  
[DIR]ktouch/2022-12-29 11:57 -  
[DIR]ktuberling/2022-12-29 11:57 -  
[DIR]kturtle/2022-12-29 11:57 -  
[DIR]kubrick/2022-12-29 11:57 -  
[DIR]kuser/2022-12-29 11:57 -  
[DIR]kwallet/2022-12-29 11:57 -  
[DIR]kwordquiz/2022-12-29 11:57 -  
[DIR]libalkimia/2022-12-29 11:57 -  
[DIR]libkcddb/2022-12-29 11:57 -  
[DIR]libkcompactdisc/2022-12-29 11:57 -  
[DIR]libkdcraw/2022-12-29 11:57 -  
[DIR]libkdeedu/2022-12-29 11:57 -  
[DIR]libkdegames/2022-12-29 11:57 -  
[DIR]libkexiv2/2022-12-29 11:57 -  
[DIR]libkgapi/2022-12-29 11:57 -  
[DIR]libkipi/2022-12-29 11:57 -  
[DIR]libkmahjongg/2022-12-29 11:57 -  
[DIR]libkomparediff2/2022-12-29 11:57 -  
[DIR]libksane/2022-12-29 11:57 -  
[DIR]libktorrent/2022-12-29 11:57 -  
[DIR]lokalize/2022-12-29 11:57 -  
[DIR]lskat/2022-12-29 11:57 -  
[DIR]marble/2022-12-29 11:57 -  
[DIR]massif-visualizer/2020-11-16 18:39 -  
[DIR]mate-icons/2022-12-02 19:33 -  
[DIR]mobipocket/2022-12-29 11:57 -  
[DIR]mplayerthumbs/2022-12-29 11:57 -  
[DIR]nepomuk-core/2022-12-29 11:57 -  
[DIR]nepomuk-widgets/2022-12-29 11:57 -  
[DIR]okteta/2022-12-29 11:57 -  
[DIR]okular/2022-12-29 11:57 -  
[DIR]oxygen-icons/2024-01-13 01:24 -  
[DIR]pairs/2022-12-29 11:57 -  
[DIR]palapeli/2022-12-29 11:57 -  
[DIR]parley/2022-12-29 11:57 -  
[DIR]perlkde/2022-12-29 11:57 -  
[DIR]perlqt/2022-12-29 11:57 -  
[DIR]picmi/2022-12-29 11:57 -  
[DIR]polkit-qt/2022-02-03 18:30 -  
[DIR]poxml/2022-12-29 11:57 -  
[DIR]prison/2020-11-16 18:39 -  
[DIR]py-pykde4/2023-12-10 13:07 -  
[DIR]qtcurve/2023-02-12 20:16 -  
[DIR]qtruby/2023-08-08 13:27 -  
[DIR]qyoto/2022-12-29 11:57 -  
[DIR]rkward/2021-11-16 21:34 -  
[DIR]rocs/2022-12-29 11:57 -  
[DIR]shared-desktop-ontologies/2022-11-01 13:03 -  
[DIR]skrooge/2021-11-16 21:34 -  
[DIR]smokegen/2022-12-29 11:57 -  
[DIR]smokekde/2022-12-29 11:57 -  
[DIR]smokeqt/2022-12-29 11:57 -  
[DIR]step/2022-12-29 11:57 -  
[DIR]svgpart/2022-12-29 11:57 -  
[DIR]sweeper/2022-12-29 11:57 -  
[DIR]tellico/2023-12-15 21:36 -  
[DIR]umbrello/2022-12-29 11:57 -